sensor_id;sensor_type;location;lat;lon;timestamp;P1;durP1;ratioP1;P2;durP2;ratioP2
10715;SDS011;5409;42.620;23.316;2023-02-28T00:00:35;15.88;;;10.15;;
10715;SDS011;5409;42.620;23.316;2023-02-28T00:03:02;16.38;;;10.35;;
10715;SDS011;5409;42.620;23.316;2023-02-28T00:05:29;15.98;;;10.23;;
10715;SDS011;5409;42.620;23.316;2023-02-28T00:07:56;16.83;;;11.27;;
10715;SDS011;5409;42.620;23.316;2023-02-28T00:10:23;16.75;;;11.63;;
10715;SDS011;5409;42.620;23.316;2023-02-28T00:12:53;18.35;;;12.25;;
10715;SDS011;5409;42.620;23.316;2023-02-28T00:15:22;17.15;;;11.02;;
10715;SDS011;5409;42.620;23.316;2023-02-28T00:17:48;20.27;;;11.88;;
10715;SDS011;5409;42.620;23.316;2023-02-28T00:20:15;18.25;;;12.05;;
10715;SDS011;5409;42.620;23.316;2023-02-28T00:22:42;19.25;;;12.23;;
10715;SDS011;5409;42.620;23.316;2023-02-28T00:25:10;22.98;;;12.85;;
10715;SDS011;5409;42.620;23.316;2023-02-28T00:27:37;19.13;;;12.65;;
10715;SDS011;5409;42.620;23.316;2023-02-28T00:30:07;19.77;;;11.98;;
10715;SDS011;5409;42.620;23.316;2023-02-28T00:32:34;18.67;;;11.88;;
10715;SDS011;5409;42.620;23.316;2023-02-28T00:35:01;17.50;;;10.93;;
10715;SDS011;5409;42.620;23.316;2023-02-28T00:37:27;21.42;;;11.55;;
10715;SDS011;5409;42.620;23.316;2023-02-28T00:39:54;18.90;;;11.95;;
10715;SDS011;5409;42.620;23.316;2023-02-28T00:42:20;15.80;;;9.90;;
10715;SDS011;5409;42.620;23.316;2023-02-28T00:44:47;19.63;;;9.65;;
10715;SDS011;5409;42.620;23.316;2023-02-28T00:47:15;16.27;;;10.48;;
10715;SDS011;5409;42.620;23.316;2023-02-28T00:49:42;21.33;;;12.98;;
10715;SDS011;5409;42.620;23.316;2023-02-28T00:52:08;11.25;;;7.50;;
10715;SDS011;5409;42.620;23.316;2023-02-28T00:54:35;15.32;;;9.75;;
10715;SDS011;5409;42.620;23.316;2023-02-28T00:57:02;23.83;;;15.88;;
10715;SDS011;5409;42.620;23.316;2023-02-28T00:59:28;12.13;;;7.80;;
10715;SDS011;5409;42.620;23.316;2023-02-28T01:01:55;17.77;;;12.88;;
10715;SDS011;5409;42.620;23.316;2023-02-28T01:04:23;12.70;;;10.32;;
10715;SDS011;5409;42.620;23.316;2023-02-28T01:06:49;18.23;;;12.20;;
10715;SDS011;5409;42.620;23.316;2023-02-28T01:09:16;19.60;;;13.18;;
10715;SDS011;5409;42.620;23.316;2023-02-28T01:11:42;20.13;;;9.60;;
10715;SDS011;5409;42.620;23.316;2023-02-28T01:14:11;15.82;;;11.07;;
10715;SDS011;5409;42.620;23.316;2023-02-28T01:16:38;16.10;;;10.30;;
10715;SDS011;5409;42.620;23.316;2023-02-28T01:19:05;11.07;;;7.70;;
10715;SDS011;5409;42.620;23.316;2023-02-28T01:21:32;10.32;;;6.65;;
10715;SDS011;5409;42.620;23.316;2023-02-28T01:24:00;12.15;;;7.38;;
10715;SDS011;5409;42.620;23.316;2023-02-28T01:26:26;9.65;;;6.05;;
10715;SDS011;5409;42.620;23.316;2023-02-28T01:28:53;8.07;;;6.75;;
10715;SDS011;5409;42.620;23.316;2023-02-28T01:31:20;12.18;;;7.75;;
10715;SDS011;5409;42.620;23.316;2023-02-28T01:33:47;14.20;;;6.60;;
10715;SDS011;5409;42.620;23.316;2023-02-28T01:36:15;8.88;;;6.28;;
10715;SDS011;5409;42.620;23.316;2023-02-28T01:38:44;12.30;;;7.10;;
10715;SDS011;5409;42.620;23.316;2023-02-28T01:41:14;10.40;;;7.55;;
10715;SDS011;5409;42.620;23.316;2023-02-28T01:43:55;153.10;;;14.43;;
10715;SDS011;5409;42.620;23.316;2023-02-28T01:46:21;289.05;;;19.13;;
10715;SDS011;5409;42.620;23.316;2023-02-28T01:48:50;29.75;;;9.98;;
10715;SDS011;5409;42.620;23.316;2023-02-28T01:51:18;245.52;;;20.98;;
10715;SDS011;5409;42.620;23.316;2023-02-28T01:53:48;279.75;;;23.52;;
10715;SDS011;5409;42.620;23.316;2023-02-28T01:56:16;230.35;;;21.15;;
10715;SDS011;5409;42.620;23.316;2023-02-28T01:58:47;103.03;;;17.13;;
10715;SDS011;5409;42.620;23.316;2023-02-28T02:01:14;41.85;;;14.48;;
10715;SDS011;5409;42.620;23.316;2023-02-28T02:03:46;33.35;;;12.93;;
10715;SDS011;5409;42.620;23.316;2023-02-28T02:06:13;64.65;;;14.27;;
10715;SDS011;5409;42.620;23.316;2023-02-28T02:08:39;31.50;;;13.98;;
10715;SDS011;5409;42.620;23.316;2023-02-28T02:11:08;31.20;;;14.75;;
10715;SDS011;5409;42.620;23.316;2023-02-28T02:13:46;101.70;;;18.80;;
10715;SDS011;5409;42.620;23.316;2023-02-28T02:16:23;171.60;;;18.88;;
10715;SDS011;5409;42.620;23.316;2023-02-28T02:18:55;33.22;;;15.40;;
10715;SDS011;5409;42.620;23.316;2023-02-28T02:21:41;38.00;;;14.32;;
10715;SDS011;5409;42.620;23.316;2023-02-28T02:24:23;264.25;;;21.00;;
10715;SDS011;5409;42.620;23.316;2023-02-28T02:27:08;141.15;;;17.52;;
10715;SDS011;5409;42.620;23.316;2023-02-28T02:32:44;214.18;;;16.60;;
10715;SDS011;5409;42.620;23.316;2023-02-28T02:35:15;153.30;;;16.15;;
10715;SDS011;5409;42.620;23.316;2023-02-28T02:37:43;192.07;;;14.70;;
10715;SDS011;5409;42.620;23.316;2023-02-28T02:40:14;45.65;;;11.10;;
10715;SDS011;5409;42.620;23.316;2023-02-28T02:42:44;15.02;;;9.77;;
10715;SDS011;5409;42.620;23.316;2023-02-28T02:45:14;12.63;;;7.90;;
10715;SDS011;5409;42.620;23.316;2023-02-28T02:47:42;12.82;;;7.15;;
10715;SDS011;5409;42.620;23.316;2023-02-28T02:50:11;13.88;;;6.68;;
10715;SDS011;5409;42.620;23.316;2023-02-28T02:52:42;9.52;;;5.53;;
10715;SDS011;5409;42.620;23.316;2023-02-28T02:55:09;13.75;;;5.70;;
10715;SDS011;5409;42.620;23.316;2023-02-28T02:57:38;10.43;;;4.05;;
10715;SDS011;5409;42.620;23.316;2023-02-28T03:00:07;10.73;;;4.43;;
10715;SDS011;5409;42.620;23.316;2023-02-28T03:02:34;15.43;;;6.00;;
10715;SDS011;5409;42.620;23.316;2023-02-28T03:05:02;13.07;;;4.43;;
10715;SDS011;5409;42.620;23.316;2023-02-28T03:07:30;14.52;;;4.40;;
10715;SDS011;5409;42.620;23.316;2023-02-28T03:09:58;9.35;;;4.00;;
10715;SDS011;5409;42.620;23.316;2023-02-28T03:12:28;8.55;;;4.32;;
10715;SDS011;5409;42.620;23.316;2023-02-28T03:15:00;9.77;;;4.28;;
10715;SDS011;5409;42.620;23.316;2023-02-28T03:17:36;11.27;;;4.68;;
10715;SDS011;5409;42.620;23.316;2023-02-28T03:20:09;43.55;;;6.30;;
10715;SDS011;5409;42.620;23.316;2023-02-28T03:22:45;227.52;;;15.00;;
10715;SDS011;5409;42.620;23.316;2023-02-28T03:25:18;196.05;;;15.40;;
10715;SDS011;5409;42.620;23.316;2023-02-28T03:27:48;387.15;;;20.40;;
10715;SDS011;5409;42.620;23.316;2023-02-28T03:30:17;91.72;;;12.27;;
10715;SDS011;5409;42.620;23.316;2023-02-28T03:32:50;150.38;;;14.45;;
10715;SDS011;5409;42.620;23.316;2023-02-28T03:35:18;287.95;;;18.25;;
10715;SDS011;5409;42.620;23.316;2023-02-28T03:37:47;142.48;;;12.98;;
10715;SDS011;5409;42.620;23.316;2023-02-28T03:40:17;82.28;;;13.15;;
10715;SDS011;5409;42.620;23.316;2023-02-28T03:42:45;279.88;;;19.75;;
10715;SDS011;5409;42.620;23.316;2023-02-28T03:45:14;256.58;;;17.73;;
10715;SDS011;5409;42.620;23.316;2023-02-28T03:47:43;153.55;;;15.52;;
10715;SDS011;5409;42.620;23.316;2023-02-28T03:50:12;150.90;;;15.15;;
10715;SDS011;5409;42.620;23.316;2023-02-28T03:52:40;71.07;;;13.40;;
10715;SDS011;5409;42.620;23.316;2023-02-28T03:55:10;259.40;;;18.63;;
10715;SDS011;5409;42.620;23.316;2023-02-28T03:57:39;287.63;;;19.25;;
10715;SDS011;5409;42.620;23.316;2023-02-28T04:00:08;285.10;;;19.83;;
10715;SDS011;5409;42.620;23.316;2023-02-28T04:02:36;206.05;;;15.23;;
10715;SDS011;5409;42.620;23.316;2023-02-28T04:05:02;257.73;;;18.05;;
10715;SDS011;5409;42.620;23.316;2023-02-28T04:07:29;196.00;;;16.52;;
10715;SDS011;5409;42.620;23.316;2023-02-28T04:09:56;197.80;;;15.00;;
10715;SDS011;5409;42.620;23.316;2023-02-28T04:12:23;148.20;;;14.25;;
10715;SDS011;5409;42.620;23.316;2023-02-28T04:14:50;118.47;;;12.15;;
10715;SDS011;5409;42.620;23.316;2023-02-28T04:17:17;189.80;;;15.32;;
10715;SDS011;5409;42.620;23.316;2023-02-28T04:19:43;217.73;;;18.55;;
10715;SDS011;5409;42.620;23.316;2023-02-28T04:22:10;336.40;;;19.48;;
10715;SDS011;5409;42.620;23.316;2023-02-28T04:24:36;242.93;;;16.38;;
10715;SDS011;5409;42.620;23.316;2023-02-28T04:27:06;322.45;;;19.10;;
10715;SDS011;5409;42.620;23.316;2023-02-28T04:29:33;220.77;;;15.40;;
10715;SDS011;5409;42.620;23.316;2023-02-28T04:32:01;146.30;;;15.40;;
10715;SDS011;5409;42.620;23.316;2023-02-28T04:34:29;181.25;;;18.23;;
10715;SDS011;5409;42.620;23.316;2023-02-28T04:36:56;394.35;;;26.70;;
10715;SDS011;5409;42.620;23.316;2023-02-28T04:39:23;421.60;;;24.55;;
10715;SDS011;5409;42.620;23.316;2023-02-28T04:41:49;349.85;;;24.55;;
10715;SDS011;5409;42.620;23.316;2023-02-28T04:44:16;226.77;;;19.05;;
10715;SDS011;5409;42.620;23.316;2023-02-28T04:46:43;262.15;;;20.98;;
10715;SDS011;5409;42.620;23.316;2023-02-28T04:49:11;198.93;;;19.17;;
10715;SDS011;5409;42.620;23.316;2023-02-28T04:51:38;196.05;;;16.65;;
10715;SDS011;5409;42.620;23.316;2023-02-28T04:54:04;230.68;;;17.42;;
10715;SDS011;5409;42.620;23.316;2023-02-28T04:56:31;292.58;;;18.95;;
10715;SDS011;5409;42.620;23.316;2023-02-28T04:58:57;92.88;;;14.50;;
10715;SDS011;5409;42.620;23.316;2023-02-28T05:01:25;182.18;;;17.40;;
10715;SDS011;5409;42.620;23.316;2023-02-28T05:03:52;200.75;;;18.95;;
10715;SDS011;5409;42.620;23.316;2023-02-28T05:06:21;123.18;;;13.45;;
10715;SDS011;5409;42.620;23.316;2023-02-28T05:08:48;239.77;;;17.67;;
10715;SDS011;5409;42.620;23.316;2023-02-28T05:11:16;177.82;;;16.35;;
10715;SDS011;5409;42.620;23.316;2023-02-28T05:13:43;89.18;;;15.50;;
10715;SDS011;5409;42.620;23.316;2023-02-28T05:16:09;90.45;;;14.07;;
10715;SDS011;5409;42.620;23.316;2023-02-28T05:18:36;188.52;;;19.27;;
10715;SDS011;5409;42.620;23.316;2023-02-28T05:21:03;312.15;;;21.45;;
10715;SDS011;5409;42.620;23.316;2023-02-28T05:23:30;196.77;;;18.52;;
10715;SDS011;5409;42.620;23.316;2023-02-28T05:25:57;166.20;;;17.95;;
10715;SDS011;5409;42.620;23.316;2023-02-28T05:28:24;176.93;;;18.13;;
10715;SDS011;5409;42.620;23.316;2023-02-28T05:30:50;97.13;;;15.25;;
10715;SDS011;5409;42.620;23.316;2023-02-28T05:33:17;131.15;;;15.90;;
10715;SDS011;5409;42.620;23.316;2023-02-28T05:35:43;56.40;;;13.95;;
10715;SDS011;5409;42.620;23.316;2023-02-28T05:38:10;99.55;;;14.85;;
10715;SDS011;5409;42.620;23.316;2023-02-28T05:40:39;47.65;;;12.40;;
10715;SDS011;5409;42.620;23.316;2023-02-28T05:43:05;44.92;;;12.98;;
10715;SDS011;5409;42.620;23.316;2023-02-28T05:45:34;78.97;;;15.60;;
10715;SDS011;5409;42.620;23.316;2023-02-28T05:48:01;60.78;;;16.05;;
10715;SDS011;5409;42.620;23.316;2023-02-28T05:50:28;81.88;;;15.05;;
10715;SDS011;5409;42.620;23.316;2023-02-28T05:52:54;69.40;;;13.93;;
10715;SDS011;5409;42.620;23.316;2023-02-28T05:55:21;83.40;;;15.10;;
10715;SDS011;5409;42.620;23.316;2023-02-28T05:57:49;47.92;;;13.48;;
10715;SDS011;5409;42.620;23.316;2023-02-28T06:00:15;74.18;;;13.75;;
10715;SDS011;5409;42.620;23.316;2023-02-28T06:02:42;45.75;;;14.35;;
10715;SDS011;5409;42.620;23.316;2023-02-28T06:05:10;51.35;;;14.45;;
10715;SDS011;5409;42.620;23.316;2023-02-28T06:07:38;78.28;;;14.70;;
10715;SDS011;5409;42.620;23.316;2023-02-28T06:10:05;119.75;;;20.75;;
10715;SDS011;5409;42.620;23.316;2023-02-28T06:12:32;77.25;;;20.73;;
10715;SDS011;5409;42.620;23.316;2023-02-28T06:15:00;117.90;;;16.73;;
10715;SDS011;5409;42.620;23.316;2023-02-28T06:17:26;153.23;;;19.42;;
10715;SDS011;5409;42.620;23.316;2023-02-28T06:19:53;116.65;;;18.52;;
10715;SDS011;5409;42.620;23.316;2023-02-28T06:22:20;142.13;;;16.98;;
10715;SDS011;5409;42.620;23.316;2023-02-28T06:24:46;40.00;;;14.38;;
10715;SDS011;5409;42.620;23.316;2023-02-28T06:27:13;35.75;;;14.25;;
10715;SDS011;5409;42.620;23.316;2023-02-28T06:29:39;45.45;;;15.18;;
10715;SDS011;5409;42.620;23.316;2023-02-28T06:32:07;53.45;;;15.65;;
10715;SDS011;5409;42.620;23.316;2023-02-28T06:34:34;153.77;;;20.40;;
10715;SDS011;5409;42.620;23.316;2023-02-28T06:37:01;93.38;;;18.52;;
10715;SDS011;5409;42.620;23.316;2023-02-28T06:39:28;142.02;;;19.85;;
10715;SDS011;5409;42.620;23.316;2023-02-28T06:41:54;163.27;;;20.00;;
10715;SDS011;5409;42.620;23.316;2023-02-28T06:44:21;262.67;;;22.13;;
10715;SDS011;5409;42.620;23.316;2023-02-28T06:46:48;98.50;;;17.77;;
10715;SDS011;5409;42.620;23.316;2023-02-28T06:49:17;50.05;;;16.92;;
10715;SDS011;5409;42.620;23.316;2023-02-28T06:51:44;29.35;;;15.88;;
10715;SDS011;5409;42.620;23.316;2023-02-28T06:54:11;42.47;;;16.08;;
10715;SDS011;5409;42.620;23.316;2023-02-28T06:56:37;31.25;;;16.10;;
10715;SDS011;5409;42.620;23.316;2023-02-28T06:59:04;37.05;;;16.63;;
10715;SDS011;5409;42.620;23.316;2023-02-28T07:01:31;30.70;;;15.82;;
10715;SDS011;5409;42.620;23.316;2023-02-28T07:03:58;34.08;;;18.60;;
10715;SDS011;5409;42.620;23.316;2023-02-28T07:06:26;32.03;;;16.25;;
10715;SDS011;5409;42.620;23.316;2023-02-28T07:08:53;38.90;;;18.48;;
10715;SDS011;5409;42.620;23.316;2023-02-28T07:11:19;32.90;;;17.77;;
10715;SDS011;5409;42.620;23.316;2023-02-28T07:13:47;34.95;;;18.40;;
10715;SDS011;5409;42.620;23.316;2023-02-28T07:16:13;32.60;;;16.58;;
10715;SDS011;5409;42.620;23.316;2023-02-28T07:18:40;34.42;;;17.30;;
10715;SDS011;5409;42.620;23.316;2023-02-28T07:21:07;33.53;;;17.70;;
10715;SDS011;5409;42.620;23.316;2023-02-28T07:23:36;34.50;;;19.40;;
10715;SDS011;5409;42.620;23.316;2023-02-28T07:26:04;34.38;;;18.42;;
10715;SDS011;5409;42.620;23.316;2023-02-28T07:28:30;37.75;;;19.20;;
10715;SDS011;5409;42.620;23.316;2023-02-28T07:31:02;36.22;;;18.58;;
10715;SDS011;5409;42.620;23.316;2023-02-28T07:33:29;36.25;;;19.60;;
10715;SDS011;5409;42.620;23.316;2023-02-28T07:35:59;43.10;;;21.55;;
10715;SDS011;5409;42.620;23.316;2023-02-28T07:38:26;40.42;;;22.20;;
10715;SDS011;5409;42.620;23.316;2023-02-28T07:40:53;48.28;;;24.88;;
10715;SDS011;5409;42.620;23.316;2023-02-28T07:43:20;51.50;;;26.52;;
10715;SDS011;5409;42.620;23.316;2023-02-28T07:45:46;52.38;;;26.42;;
10715;SDS011;5409;42.620;23.316;2023-02-28T07:48:13;47.58;;;28.10;;
10715;SDS011;5409;42.620;23.316;2023-02-28T07:50:39;65.05;;;35.28;;
10715;SDS011;5409;42.620;23.316;2023-02-28T07:53:06;54.88;;;28.42;;
10715;SDS011;5409;42.620;23.316;2023-02-28T07:55:32;48.70;;;29.38;;
10715;SDS011;5409;42.620;23.316;2023-02-28T07:58:00;48.80;;;28.70;;
10715;SDS011;5409;42.620;23.316;2023-02-28T08:00:27;46.92;;;26.55;;
10715;SDS011;5409;42.620;23.316;2023-02-28T08:02:54;52.63;;;25.75;;
10715;SDS011;5409;42.620;23.316;2023-02-28T08:05:20;44.05;;;25.60;;
10715;SDS011;5409;42.620;23.316;2023-02-28T08:07:48;45.30;;;25.05;;
10715;SDS011;5409;42.620;23.316;2023-02-28T08:10:15;46.45;;;27.58;;
10715;SDS011;5409;42.620;23.316;2023-02-28T08:12:41;50.75;;;27.90;;
10715;SDS011;5409;42.620;23.316;2023-02-28T08:15:09;52.58;;;31.88;;
10715;SDS011;5409;42.620;23.316;2023-02-28T08:17:36;51.30;;;28.48;;
10715;SDS011;5409;42.620;23.316;2023-02-28T08:20:03;52.50;;;26.98;;
10715;SDS011;5409;42.620;23.316;2023-02-28T08:22:30;54.20;;;25.55;;
10715;SDS011;5409;42.620;23.316;2023-02-28T08:24:56;47.60;;;26.45;;
10715;SDS011;5409;42.620;23.316;2023-02-28T08:27:23;52.63;;;29.00;;
10715;SDS011;5409;42.620;23.316;2023-02-28T08:29:49;58.90;;;29.55;;
10715;SDS011;5409;42.620;23.316;2023-02-28T08:32:17;89.75;;;30.27;;
10715;SDS011;5409;42.620;23.316;2023-02-28T08:34:43;47.13;;;27.98;;
10715;SDS011;5409;42.620;23.316;2023-02-28T08:37:10;66.57;;;28.30;;
10715;SDS011;5409;42.620;23.316;2023-02-28T08:39:36;47.95;;;27.30;;
10715;SDS011;5409;42.620;23.316;2023-02-28T08:42:03;45.42;;;23.75;;
10715;SDS011;5409;42.620;23.316;2023-02-28T08:44:30;43.20;;;25.00;;
10715;SDS011;5409;42.620;23.316;2023-02-28T08:46:56;57.80;;;26.10;;
10715;SDS011;5409;42.620;23.316;2023-02-28T08:49:24;41.47;;;23.77;;
10715;SDS011;5409;42.620;23.316;2023-02-28T08:51:51;46.47;;;24.52;;
10715;SDS011;5409;42.620;23.316;2023-02-28T08:54:17;47.10;;;25.35;;
10715;SDS011;5409;42.620;23.316;2023-02-28T08:56:44;42.65;;;23.45;;
10715;SDS011;5409;42.620;23.316;2023-02-28T08:59:11;38.10;;;21.20;;
10715;SDS011;5409;42.620;23.316;2023-02-28T09:01:37;38.15;;;21.48;;
10715;SDS011;5409;42.620;23.316;2023-02-28T09:04:06;33.50;;;17.75;;
10715;SDS011;5409;42.620;23.316;2023-02-28T09:06:34;41.05;;;17.08;;
10715;SDS011;5409;42.620;23.316;2023-02-28T09:09:01;33.63;;;18.75;;
10715;SDS011;5409;42.620;23.316;2023-02-28T09:11:29;35.92;;;21.30;;
10715;SDS011;5409;42.620;23.316;2023-02-28T09:13:55;35.78;;;18.45;;
10715;SDS011;5409;42.620;23.316;2023-02-28T09:16:22;37.97;;;20.42;;
10715;SDS011;5409;42.620;23.316;2023-02-28T09:18:48;45.05;;;22.98;;
10715;SDS011;5409;42.620;23.316;2023-02-28T09:21:15;37.88;;;21.27;;
10715;SDS011;5409;42.620;23.316;2023-02-28T09:23:44;40.08;;;21.52;;
10715;SDS011;5409;42.620;23.316;2023-02-28T09:26:13;43.15;;;23.88;;
10715;SDS011;5409;42.620;23.316;2023-02-28T09:28:39;37.60;;;20.05;;
10715;SDS011;5409;42.620;23.316;2023-02-28T09:31:06;40.05;;;20.80;;
10715;SDS011;5409;42.620;23.316;2023-02-28T09:33:32;34.85;;;20.83;;
10715;SDS011;5409;42.620;23.316;2023-02-28T09:36:00;38.33;;;21.05;;
10715;SDS011;5409;42.620;23.316;2023-02-28T09:38:27;25.20;;;15.15;;
10715;SDS011;5409;42.620;23.316;2023-02-28T09:40:56;28.10;;;15.85;;
10715;SDS011;5409;42.620;23.316;2023-02-28T09:43:23;22.08;;;12.45;;
10715;SDS011;5409;42.620;23.316;2023-02-28T09:45:51;26.58;;;12.75;;
10715;SDS011;5409;42.620;23.316;2023-02-28T09:48:24;19.23;;;10.85;;
10715;SDS011;5409;42.620;23.316;2023-02-28T09:50:52;24.55;;;11.50;;
10715;SDS011;5409;42.620;23.316;2023-02-28T09:53:20;16.83;;;10.25;;
10715;SDS011;5409;42.620;23.316;2023-02-28T09:55:48;19.45;;;10.98;;
10715;SDS011;5409;42.620;23.316;2023-02-28T09:58:19;21.08;;;9.85;;
10715;SDS011;5409;42.620;23.316;2023-02-28T10:00:46;20.60;;;11.25;;
10715;SDS011;5409;42.620;23.316;2023-02-28T10:03:22;18.65;;;9.15;;
10715;SDS011;5409;42.620;23.316;2023-02-28T10:05:52;17.17;;;8.38;;
10715;SDS011;5409;42.620;23.316;2023-02-28T10:08:21;16.95;;;9.40;;
10715;SDS011;5409;42.620;23.316;2023-02-28T10:10:51;17.42;;;9.50;;
10715;SDS011;5409;42.620;23.316;2023-02-28T10:13:23;22.42;;;9.35;;
10715;SDS011;5409;42.620;23.316;2023-02-28T10:15:51;20.60;;;9.35;;
10715;SDS011;5409;42.620;23.316;2023-02-28T10:18:20;23.42;;;9.15;;
10715;SDS011;5409;42.620;23.316;2023-02-28T10:20:47;20.05;;;8.52;;
10715;SDS011;5409;42.620;23.316;2023-02-28T10:23:16;16.10;;;8.25;;
10715;SDS011;5409;42.620;23.316;2023-02-28T10:25:44;17.98;;;8.40;;
10715;SDS011;5409;42.620;23.316;2023-02-28T10:28:13;18.25;;;8.30;;
10715;SDS011;5409;42.620;23.316;2023-02-28T10:30:42;17.65;;;8.32;;
10715;SDS011;5409;42.620;23.316;2023-02-28T10:33:12;19.38;;;8.20;;
10715;SDS011;5409;42.620;23.316;2023-02-28T10:35:42;17.40;;;7.05;;
10715;SDS011;5409;42.620;23.316;2023-02-28T10:38:11;21.50;;;8.57;;
10715;SDS011;5409;42.620;23.316;2023-02-28T10:40:40;20.58;;;8.73;;
10715;SDS011;5409;42.620;23.316;2023-02-28T10:43:18;15.18;;;7.88;;
10715;SDS011;5409;42.620;23.316;2023-02-28T10:45:55;13.39;;;7.08;;
10715;SDS011;5409;42.620;23.316;2023-02-28T10:48:26;15.90;;;8.25;;
10715;SDS011;5409;42.620;23.316;2023-02-28T10:50:54;14.80;;;7.45;;
10715;SDS011;5409;42.620;23.316;2023-02-28T10:53:25;17.92;;;8.27;;
10715;SDS011;5409;42.620;23.316;2023-02-28T10:55:58;14.63;;;8.13;;
10715;SDS011;5409;42.620;23.316;2023-02-28T10:58:26;13.98;;;7.30;;
10715;SDS011;5409;42.620;23.316;2023-02-28T11:00:55;20.13;;;8.52;;
10715;SDS011;5409;42.620;23.316;2023-02-28T11:03:32;15.10;;;8.10;;
10715;SDS011;5409;42.620;23.316;2023-02-28T11:06:03;21.50;;;8.80;;
10715;SDS011;5409;42.620;23.316;2023-02-28T11:08:30;20.00;;;8.55;;
10715;SDS011;5409;42.620;23.316;2023-02-28T11:10:57;18.75;;;8.00;;
10715;SDS011;5409;42.620;23.316;2023-02-28T11:13:26;21.52;;;8.15;;
10715;SDS011;5409;42.620;23.316;2023-02-28T11:15:55;13.52;;;7.85;;
10715;SDS011;5409;42.620;23.316;2023-02-28T11:18:23;13.52;;;8.23;;
10715;SDS011;5409;42.620;23.316;2023-02-28T11:20:50;17.02;;;8.52;;
10715;SDS011;5409;42.620;23.316;2023-02-28T11:23:17;17.40;;;8.70;;
10715;SDS011;5409;42.620;23.316;2023-02-28T11:25:46;15.13;;;8.45;;
10715;SDS011;5409;42.620;23.316;2023-02-28T11:28:23;16.25;;;8.93;;
10715;SDS011;5409;42.620;23.316;2023-02-28T11:31:00;19.48;;;9.35;;
10715;SDS011;5409;42.620;23.316;2023-02-28T11:33:28;14.30;;;9.10;;
10715;SDS011;5409;42.620;23.316;2023-02-28T11:35:56;15.45;;;8.57;;
10715;SDS011;5409;42.620;23.316;2023-02-28T11:38:25;14.95;;;8.10;;
10715;SDS011;5409;42.620;23.316;2023-02-28T11:40:55;13.35;;;8.68;;
10715;SDS011;5409;42.620;23.316;2023-02-28T11:43:30;18.55;;;9.23;;
10715;SDS011;5409;42.620;23.316;2023-02-28T11:46:06;17.67;;;9.27;;
10715;SDS011;5409;42.620;23.316;2023-02-28T11:48:39;16.73;;;8.63;;
10715;SDS011;5409;42.620;23.316;2023-02-28T11:51:10;18.15;;;9.27;;
10715;SDS011;5409;42.620;23.316;2023-02-28T11:53:42;20.13;;;9.60;;
10715;SDS011;5409;42.620;23.316;2023-02-28T11:56:13;17.63;;;9.40;;
10715;SDS011;5409;42.620;23.316;2023-02-28T11:58:44;17.08;;;8.57;;
10715;SDS011;5409;42.620;23.316;2023-02-28T12:01:19;15.00;;;9.30;;
10715;SDS011;5409;42.620;23.316;2023-02-28T12:03:52;17.08;;;9.73;;
10715;SDS011;5409;42.620;23.316;2023-02-28T12:06:22;18.75;;;9.73;;
10715;SDS011;5409;42.620;23.316;2023-02-28T12:08:55;18.85;;;9.02;;
10715;SDS011;5409;42.620;23.316;2023-02-28T12:11:26;20.30;;;8.40;;
10715;SDS011;5409;42.620;23.316;2023-02-28T12:13:57;16.35;;;9.45;;
10715;SDS011;5409;42.620;23.316;2023-02-28T12:19:18;18.75;;;9.60;;
10715;SDS011;5409;42.620;23.316;2023-02-28T12:21:52;21.55;;;10.15;;
10715;SDS011;5409;42.620;23.316;2023-02-28T12:24:25;18.67;;;8.95;;
10715;SDS011;5409;42.620;23.316;2023-02-28T12:26:56;11.73;;;8.60;;
10715;SDS011;5409;42.620;23.316;2023-02-28T12:29:26;16.23;;;9.85;;
10715;SDS011;5409;42.620;23.316;2023-02-28T12:31:55;19.33;;;9.80;;
10715;SDS011;5409;42.620;23.316;2023-02-28T12:34:27;17.70;;;10.20;;
10715;SDS011;5409;42.620;23.316;2023-02-28T12:36:54;20.63;;;10.05;;
10715;SDS011;5409;42.620;23.316;2023-02-28T12:39:23;20.83;;;10.68;;
10715;SDS011;5409;42.620;23.316;2023-02-28T12:41:53;15.07;;;9.10;;
10715;SDS011;5409;42.620;23.316;2023-02-28T12:44:21;17.63;;;10.18;;
10715;SDS011;5409;42.620;23.316;2023-02-28T12:46:48;17.58;;;9.40;;
10715;SDS011;5409;42.620;23.316;2023-02-28T12:49:16;20.42;;;10.05;;
10715;SDS011;5409;42.620;23.316;2023-02-28T12:51:45;22.30;;;10.45;;
10715;SDS011;5409;42.620;23.316;2023-02-28T12:54:14;24.45;;;11.55;;
10715;SDS011;5409;42.620;23.316;2023-02-28T12:56:44;18.73;;;10.23;;
10715;SDS011;5409;42.620;23.316;2023-02-28T12:59:16;19.27;;;10.55;;
10715;SDS011;5409;42.620;23.316;2023-02-28T13:01:51;21.17;;;10.65;;
10715;SDS011;5409;42.620;23.316;2023-02-28T13:07:08;22.10;;;9.32;;
10715;SDS011;5409;42.620;23.316;2023-02-28T13:09:39;14.68;;;9.23;;
10715;SDS011;5409;42.620;23.316;2023-02-28T13:12:12;19.60;;;10.68;;
10715;SDS011;5409;42.620;23.316;2023-02-28T13:14:38;18.98;;;11.10;;
10715;SDS011;5409;42.620;23.316;2023-02-28T13:17:10;17.98;;;10.20;;
10715;SDS011;5409;42.620;23.316;2023-02-28T13:19:37;18.55;;;10.60;;
10715;SDS011;5409;42.620;23.316;2023-02-28T13:22:05;16.88;;;10.63;;
10715;SDS011;5409;42.620;23.316;2023-02-28T13:24:44;20.98;;;10.35;;
10715;SDS011;5409;42.620;23.316;2023-02-28T13:29:59;21.35;;;10.70;;
10715;SDS011;5409;42.620;23.316;2023-02-28T13:32:35;22.63;;;10.10;;
10715;SDS011;5409;42.620;23.316;2023-02-28T13:35:34;15.13;;;10.25;;
10715;SDS011;5409;42.620;23.316;2023-02-28T13:40:47;19.85;;;10.57;;
10715;SDS011;5409;42.620;23.316;2023-02-28T13:43:16;21.42;;;10.52;;
10715;SDS011;5409;42.620;23.316;2023-02-28T13:45:54;24.55;;;10.05;;
10715;SDS011;5409;42.620;23.316;2023-02-28T13:48:32;16.20;;;9.93;;
10715;SDS011;5409;42.620;23.316;2023-02-28T13:50:59;19.02;;;9.48;;
10715;SDS011;5409;42.620;23.316;2023-02-28T13:56:25;16.63;;;9.05;;
10715;SDS011;5409;42.620;23.316;2023-02-28T13:58:54;20.05;;;9.10;;
10715;SDS011;5409;42.620;23.316;2023-02-28T14:01:24;14.32;;;8.45;;
10715;SDS011;5409;42.620;23.316;2023-02-28T14:03:57;24.75;;;9.00;;
10715;SDS011;5409;42.620;23.316;2023-02-28T14:06:25;14.40;;;8.50;;
10715;SDS011;5409;42.620;23.316;2023-02-28T14:08:54;18.33;;;10.15;;
10715;SDS011;5409;42.620;23.316;2023-02-28T14:11:26;18.63;;;9.10;;
10715;SDS011;5409;42.620;23.316;2023-02-28T14:13:53;17.63;;;9.10;;
10715;SDS011;5409;42.620;23.316;2023-02-28T14:16:20;21.92;;;9.63;;
10715;SDS011;5409;42.620;23.316;2023-02-28T14:18:49;17.13;;;8.93;;
10715;SDS011;5409;42.620;23.316;2023-02-28T14:21:19;17.45;;;9.52;;
10715;SDS011;5409;42.620;23.316;2023-02-28T14:23:55;22.20;;;9.57;;
10715;SDS011;5409;42.620;23.316;2023-02-28T14:26:41;21.58;;;8.75;;
10715;SDS011;5409;42.620;23.316;2023-02-28T14:29:17;22.48;;;9.80;;
10715;SDS011;5409;42.620;23.316;2023-02-28T14:31:45;14.90;;;7.97;;
10715;SDS011;5409;42.620;23.316;2023-02-28T14:34:22;14.38;;;7.97;;
10715;SDS011;5409;42.620;23.316;2023-02-28T14:36:51;17.98;;;7.53;;
10715;SDS011;5409;42.620;23.316;2023-02-28T14:39:20;12.10;;;6.28;;
10715;SDS011;5409;42.620;23.316;2023-02-28T14:41:49;14.68;;;7.05;;
10715;SDS011;5409;42.620;23.316;2023-02-28T14:44:18;14.35;;;7.03;;
10715;SDS011;5409;42.620;23.316;2023-02-28T14:46:45;15.15;;;6.75;;
10715;SDS011;5409;42.620;23.316;2023-02-28T14:49:13;11.68;;;6.75;;